createdAt,value
2023-09-27T17:04:55.474Z,58.57
2023-09-27T17:07:24.620Z,58.53
2023-09-27T17:12:20.539Z,59.26
2023-09-27T17:14:49.654Z,59.76
2023-09-27T17:17:18.769Z,60.15
2023-09-27T17:19:48.261Z,60.34
2023-09-27T17:22:17.417Z,61.07
2023-09-27T17:24:47.297Z,61.52
2023-09-27T17:27:16.480Z,61.78
2023-09-27T17:29:45.673Z,61.88
2023-09-27T17:32:14.648Z,61.86
2023-09-27T17:34:43.750Z,61.86
2023-09-27T17:39:39.859Z,62.29
2023-09-27T17:42:09.972Z,62.40
2023-09-27T17:44:40.644Z,62.41
2023-09-27T17:47:13.135Z,62.37
2023-09-27T17:49:42.457Z,61.83
2023-09-27T17:52:11.921Z,62.92
2023-09-27T17:54:38.738Z,62.97
2023-09-27T17:57:09.137Z,63.30
2023-09-27T17:59:38.684Z,63.29
2023-09-27T18:02:07.649Z,63.52
2023-09-27T18:07:03.172Z,63.99
2023-09-27T18:09:33.041Z,63.90
2023-09-27T18:12:05.608Z,64.22
2023-09-27T18:14:35.384Z,64.22
2023-09-27T18:17:04.307Z,64.44
2023-09-27T18:19:33.532Z,64.61
2023-09-27T18:32:19.229Z,65.29
2023-09-27T18:34:48.414Z,65.40
2023-09-27T18:37:15.231Z,65.55
2023-09-27T18:39:48.664Z,65.52
2023-09-27T18:42:17.682Z,65.56
2023-09-27T18:44:48.525Z,65.86
2023-09-27T18:47:38.681Z,66.56
2023-09-27T18:50:08.288Z,66.51
2023-09-27T18:52:35.744Z,66.59
2023-09-27T18:55:05.912Z,66.60
2023-09-27T19:00:01.578Z,67.09
2023-09-27T19:02:31.877Z,67.16
2023-09-27T19:05:01.105Z,67.30
2023-09-27T19:07:30.675Z,67.47
2023-09-27T19:09:59.820Z,67.71
2023-09-27T19:12:26.530Z,68.25
2023-09-27T19:14:59.294Z,67.85
2023-09-27T19:20:14.373Z,69.42
2023-09-27T19:22:42.582Z,69.17
2023-09-27T19:25:16.520Z,69.33
2023-09-27T19:27:45.638Z,69.75
2023-09-27T19:30:16.185Z,70.05
2023-09-27T19:32:46.301Z,70.11
